Time;durP1;ratioP1;P1;durP2;ratioP2;P2;SDS_P1;SDS_P2;PMS_P1;PMS_P2;Temp;Humidity;BMP_temperature;BMP_pressure;BME280_temperature;BME280_humidity;BME280_pressure;Samples;Min_cycle;Max_cycle;Signal;HPM_P1;HPM_P2
2022/03/01 00:01:52;;;;;;;18.33;16.77;;;1.70;5.70;;;;;;4955138;29;20655;-72
2022/03/01 00:04:18;;;;;;;17.98;16.30;;;1.70;5.40;;;;;;4956161;28;20554;-71
2022/03/01 00:06:44;;;;;;;18.10;17.00;;;1.70;5.10;;;;;;4954640;29;20205;-71
2022/03/01 00:09:10;;;;;;;17.63;16.33;;;1.60;5.00;;;;;;4955411;29;20208;-71
2022/03/01 00:11:35;;;;;;;17.80;16.43;;;1.60;5.50;;;;;;4956032;28;20185;-72
2022/03/01 00:14:01;;;;;;;17.43;16.33;;;1.50;5.50;;;;;;4954711;29;20205;-72
2022/03/01 00:16:27;;;;;;;18.80;17.50;;;1.50;5.90;;;;;;4954388;29;20200;-72
2022/03/01 00:18:53;;;;;;;18.67;17.23;;;1.50;5.80;;;;;;4970383;28;20364;-71
2022/03/01 00:21:19;;;;;;;18.30;17.17;;;1.50;5.90;;;;;;4974986;28;20653;-72
2022/03/01 00:23:44;;;;;;;19.63;18.17;;;1.50;5.90;;;;;;4975122;28;20200;-72
2022/03/01 00:26:10;;;;;;;18.57;17.10;;;1.50;6.00;;;;;;4973356;28;20673;-71
2022/03/01 00:28:35;;;;;;;18.20;16.77;;;1.50;6.10;;;;;;4974914;28;20181;-70
2022/03/01 00:31:01;;;;;;;17.60;16.40;;;1.50;6.00;;;;;;4974957;28;20244;-70
2022/03/01 00:33:26;;;;;;;17.80;16.60;;;1.50;6.00;;;;;;4974765;28;20218;-70
2022/03/01 00:35:52;;;;;;;19.03;17.60;;;1.30;6.20;;;;;;4974431;28;20255;-70
2022/03/01 00:38:18;;;;;;;18.60;17.27;;;1.40;6.40;;;;;;4989529;28;20184;-71
2022/03/01 00:40:43;;;;;;;18.93;17.50;;;1.40;6.50;;;;;;4989748;28;20256;-71
2022/03/01 00:43:09;;;;;;;18.00;16.77;;;1.40;6.60;;;;;;4989543;28;20179;-71
2022/03/01 00:45:34;;;;;;;19.10;17.27;;;1.40;6.60;;;;;;4973262;28;20211;-70
2022/03/01 00:48:00;;;;;;;18.13;16.70;;;1.30;6.40;;;;;;4974542;28;20204;-71
2022/03/01 00:50:25;;;;;;;18.20;16.90;;;1.30;6.60;;;;;;4974718;28;20293;-71
2022/03/01 00:52:51;;;;;;;18.30;16.70;;;1.40;6.60;;;;;;4974385;28;20181;-70
2022/03/01 00:55:16;;;;;;;18.33;16.93;;;1.40;6.70;;;;;;4973038;28;20177;-70
2022/03/01 00:57:42;;;;;;;16.57;15.47;;;1.20;7.00;;;;;;4972966;28;20586;-71
2022/03/01 01:00:09;;;;;;;18.40;16.87;;;1.30;7.60;;;;;;4974638;28;20634;-71
2022/03/01 01:02:34;;;;;;;17.05;15.77;;;1.20;7.00;;;;;;4974433;28;20189;-71
2022/03/01 01:05:00;;;;;;;18.83;17.20;;;1.10;7.20;;;;;;4989073;28;20272;-71
2022/03/01 01:07:26;;;;;;;17.77;16.73;;;1.10;7.40;;;;;;4973677;28;20450;-71
2022/03/01 01:09:52;;;;;;;19.13;17.63;;;1.10;7.40;;;;;;4974186;28;20182;-70
2022/03/01 01:12:18;;;;;;;16.67;15.38;;;1.10;7.50;;;;;;4973773;28;20555;-72
2022/03/01 01:14:44;;;;;;;17.80;16.70;;;1.10;7.40;;;;;;4974237;28;20235;-70
2022/03/01 01:17:09;;;;;;;17.88;16.52;;;1.00;7.60;;;;;;4973308;28;20202;-71
2022/03/01 01:19:35;;;;;;;19.77;17.83;;;1.00;7.80;;;;;;4973736;28;20259;-71
2022/03/01 01:24:45;;;;;;;17.95;16.27;;;0.80;8.10;;;;;;4960266;28;20238;-71
2022/03/01 01:27:11;;;;;;;19.83;18.27;;;0.70;8.30;;;;;;4954476;28;20853;-70
2022/03/01 01:29:36;;;;;;;18.23;16.77;;;0.80;8.40;;;;;;4972313;28;20431;-69
2022/03/01 01:32:02;;;;;;;18.40;16.90;;;0.70;8.70;;;;;;4988419;28;20560;-70
2022/03/01 01:34:28;;;;;;;16.95;15.60;;;0.60;8.60;;;;;;4973567;28;20205;-70
2022/03/01 01:36:53;;;;;;;18.80;17.27;;;0.50;8.70;;;;;;4973342;28;20192;-71
2022/03/01 01:39:19;;;;;;;17.07;15.97;;;0.40;9.10;;;;;;4973769;28;20640;-71
2022/03/01 01:41:45;;;;;;;17.93;16.57;;;0.30;9.70;;;;;;4973594;28;20230;-70
2022/03/01 01:44:10;;;;;;;17.27;16.20;;;0.20;9.50;;;;;;4973546;28;20548;-70
2022/03/01 01:46:36;;;;;;;17.47;16.17;;;0.20;9.90;;;;;;4972965;28;20281;-70
2022/03/01 01:49:02;;;;;;;18.60;17.20;;;0.20;10.10;;;;;;4973412;28;20260;-72
2022/03/01 01:51:27;;;;;;;17.80;16.67;;;0.10;10.10;;;;;;4973561;28;20313;-70
2022/03/01 01:53:53;;;;;;;16.83;15.63;;;-0.10;10.40;;;;;;4973407;28;20288;-71
2022/03/01 01:56:18;;;;;;;16.37;15.13;;;-0.20;11.10;;;;;;4987887;28;20211;-70
2022/03/01 01:58:44;;;;;;;18.20;16.83;;;-0.20;11.30;;;;;;4973224;28;20173;-71
2022/03/01 02:01:10;;;;;;;18.03;16.27;;;-0.20;10.90;;;;;;4973330;28;20183;-70
2022/03/01 02:03:35;;;;;;;18.03;16.37;;;-0.30;11.90;;;;;;4973334;28;20216;-71
2022/03/01 02:06:02;;;;;;;17.13;15.73;;;-0.30;12.10;;;;;;4988030;28;20424;-70
2022/03/01 02:08:32;;;;;;;19.33;17.58;;;-0.30;11.90;;;;;;4987853;28;20678;-70
2022/03/01 02:10:58;;;;;;;17.60;16.38;;;-0.40;12.30;;;;;;4973194;28;20196;-70
2022/03/01 02:13:24;;;;;;;17.10;15.73;;;-0.40;12.50;;;;;;4971891;28;20610;-70
2022/03/01 02:15:50;;;;;;;19.13;17.43;;;-0.50;12.40;;;;;;4972479;28;20544;-70
2022/03/01 02:18:16;;;;;;;18.63;17.10;;;-0.40;12.40;;;;;;4972845;28;20228;-70
2022/03/01 02:20:42;;;;;;;19.67;18.05;;;-0.50;12.40;;;;;;4973099;28;20412;-70
2022/03/01 02:23:07;;;;;;;18.37;16.63;;;-0.50;12.40;;;;;;4973114;28;20544;-71
2022/03/01 02:25:33;;;;;;;18.27;16.77;;;-0.60;12.80;;;;;;4973057;28;20236;-70
2022/03/01 02:27:59;;;;;;;17.57;16.30;;;-0.70;13.10;;;;;;4972837;28;20205;-70
2022/03/01 02:30:24;;;;;;;17.70;16.33;;;-0.70;12.80;;;;;;4973014;28;20420;-71
2022/03/01 02:32:50;;;;;;;17.70;16.20;;;-0.70;13.20;;;;;;4972853;28;20181;-70
2022/03/01 02:35:17;;;;;;;17.40;16.10;;;-0.60;12.80;;;;;;4972963;28;20551;-71
2022/03/01 02:37:43;;;;;;;17.40;16.40;;;-0.70;13.10;;;;;;4972824;28;20276;-71
2022/03/01 02:40:09;;;;;;;17.85;16.30;;;-0.70;13.00;;;;;;4973060;28;20185;-71
2022/03/01 02:42:40;;;;;;;17.13;16.08;;;-0.80;13.00;;;;;;4973478;28;20217;-71
2022/03/01 02:45:08;;;;;;;19.80;16.85;;;-0.70;12.60;;;;;;4972789;28;20200;-71
2022/03/01 02:47:34;;;;;;;18.25;16.75;;;-0.80;12.20;;;;;;4963585;28;20571;-70
2022/03/01 02:50:00;;;;;;;18.93;17.57;;;-0.80;12.60;;;;;;4953692;28;20205;-70
2022/03/01 02:52:25;;;;;;;17.60;16.30;;;-0.90;13.00;;;;;;4953580;28;20413;-69
2022/03/01 02:54:51;;;;;;;17.63;16.23;;;-0.90;13.60;;;;;;4953591;28;20290;-70
2022/03/01 02:57:16;;;;;;;17.57;16.40;;;-1.00;13.80;;;;;;4975579;23;20723;-70
2022/03/01 02:59:42;;;;;;;18.07;16.67;;;-1.00;14.00;;;;;;4953497;28;20706;-69
2022/03/01 03:02:09;;;;;;;19.47;17.83;;;-0.90;13.90;;;;;;4947972;29;20209;-69
2022/03/01 03:04:35;;;;;;;17.65;16.35;;;-1.00;13.90;;;;;;4947676;28;20213;-67
2022/03/01 03:07:00;;;;;;;21.57;18.23;;;-0.90;13.60;;;;;;4959700;28;20225;-69
2022/03/01 03:09:26;;;;;;;17.97;16.23;;;-1.00;13.80;;;;;;4973173;28;20650;-69
2022/03/01 03:11:52;;;;;;;16.80;15.47;;;-1.10;14.30;;;;;;4973162;28;20205;-68
2022/03/01 03:14:18;;;;;;;14.90;13.90;;;-1.30;14.60;;;;;;4972734;28;20212;-68
2022/03/01 03:16:44;;;;;;;19.42;17.42;;;-1.40;15.30;;;;;;4972457;28;20632;-68
2022/03/01 03:19:11;;;;;;;16.93;15.80;;;-1.30;15.20;;;;;;4972840;28;20320;-68
2022/03/01 03:21:37;;;;;;;17.77;16.30;;;-1.30;15.30;;;;;;4972992;28;20185;-68
2022/03/01 03:24:02;;;;;;;16.13;15.10;;;-1.30;15.40;;;;;;4988070;28;20621;-68
2022/03/01 03:26:28;;;;;;;18.13;16.83;;;-1.30;15.40;;;;;;4972448;28;20173;-68
2022/03/01 03:28:53;;;;;;;17.90;16.50;;;-1.30;15.50;;;;;;4973046;28;20642;-69
2022/03/01 03:31:19;;;;;;;16.90;15.70;;;-1.40;15.40;;;;;;4991387;28;20181;-68
2022/03/01 03:33:45;;;;;;;18.07;16.57;;;-1.40;15.70;;;;;;4976108;28;20214;-68
2022/03/01 03:36:10;;;;;;;16.40;15.00;;;-1.40;15.80;;;;;;4975697;28;20268;-68
2022/03/01 03:38:36;;;;;;;17.87;16.10;;;-1.40;15.60;;;;;;4975697;28;20209;-68
2022/03/01 03:41:01;;;;;;;18.43;16.70;;;-1.50;15.80;;;;;;4975863;28;20654;-68
2022/03/01 03:43:27;;;;;;;16.30;15.10;;;-1.60;15.90;;;;;;4975999;28;20185;-67
2022/03/01 03:45:52;;;;;;;17.00;15.80;;;-1.70;15.90;;;;;;4975826;28;20185;-69
2022/03/01 03:48:18;;;;;;;19.23;17.77;;;-1.70;15.90;;;;;;4969187;28;20247;-68
2022/03/01 03:50:43;;;;;;;17.13;15.50;;;-1.80;16.30;;;;;;4967900;28;20194;-68
2022/03/01 03:53:09;;;;;;;18.23;16.87;;;-1.70;15.90;;;;;;4975904;28;20264;-68
2022/03/01 03:55:35;;;;;;;19.65;17.85;;;-1.60;16.70;;;;;;4975618;28;20492;-68
2022/03/01 03:58:01;;;;;;;16.57;15.33;;;-1.60;15.90;;;;;;4974320;28;20699;-68
2022/03/01 04:00:26;;;;;;;17.90;16.40;;;-1.60;16.40;;;;;;4975763;28;20212;-68
2022/03/01 04:02:52;;;;;;;16.80;15.30;;;-1.60;16.30;;;;;;4974814;28;20269;-68
2022/03/01 04:05:18;;;;;;;16.50;15.10;;;-1.70;16.40;;;;;;4975299;28;20545;-68
2022/03/01 04:07:45;;;;;;;23.77;17.42;;;-1.70;16.40;;;;;;4975248;28;20668;-68
2022/03/01 04:10:12;;;;;;;18.30;16.60;;;-1.90;16.70;;;;;;4975501;28;20173;-68
2022/03/01 04:12:38;;;;;;;16.60;15.10;;;-1.90;16.70;;;;;;4975377;28;20173;-68
2022/03/01 04:15:06;;;;;;;19.50;16.98;;;-1.80;16.60;;;;;;4975659;28;20209;-69
2022/03/01 04:17:32;;;;;;;18.38;16.70;;;-2.00;16.60;;;;;;4989777;28;20212;-68
2022/03/01 04:19:58;;;;;;;19.10;17.20;;;-1.90;16.60;;;;;;4975326;28;20558;-69
2022/03/01 04:22:23;;;;;;;17.70;16.20;;;-1.90;16.60;;;;;;4975559;28;20175;-68
2022/03/01 04:24:49;;;;;;;17.37;15.73;;;-1.90;16.00;;;;;;4974162;28;20420;-68
2022/03/01 04:27:15;;;;;;;17.73;16.13;;;-1.90;16.40;;;;;;4975023;28;20224;-68
2022/03/01 04:29:40;;;;;;;16.70;15.50;;;-2.00;16.30;;;;;;4975292;28;20235;-68
2022/03/01 04:32:06;;;;;;;17.77;16.27;;;-2.00;16.50;;;;;;4975744;28;20420;-68
2022/03/01 04:34:32;;;;;;;17.83;16.43;;;-2.00;16.80;;;;;;4990489;28;20251;-68
2022/03/01 04:36:57;;;;;;;19.30;17.50;;;-2.00;16.40;;;;;;4975263;28;20540;-68
2022/03/01 04:39:23;;;;;;;17.67;16.07;;;-2.10;16.40;;;;;;4975300;28;20177;-68
2022/03/01 04:41:48;;;;;;;17.37;16.00;;;-2.10;16.90;;;;;;4975159;28;20232;-68
2022/03/01 04:44:14;;;;;;;18.10;16.47;;;-2.30;17.20;;;;;;4989643;28;20674;-68
2022/03/01 04:46:40;;;;;;;17.40;16.00;;;-2.20;16.80;;;;;;4974341;28;20201;-69
2022/03/01 04:49:06;;;;;;;19.00;17.42;;;-2.30;17.70;;;;;;4975888;28;20416;-69
2022/03/01 04:51:33;;;;;;;16.33;14.80;;;-2.40;17.50;;;;;;4976145;28;20264;-68
2022/03/01 04:53:59;;;;;;;18.90;16.90;;;-2.40;17.60;;;;;;4975665;28;21016;-68
2022/03/01 04:56:24;;;;;;;15.83;14.73;;;-2.30;17.70;;;;;;4990696;28;20181;-68
2022/03/01 04:58:51;;;;;;;16.93;15.57;;;-2.30;17.70;;;;;;4976069;28;20413;-69
2022/03/01 05:01:16;;;;;;;17.98;16.58;;;-2.30;17.50;;;;;;4980011;28;20434;-68
2022/03/01 05:03:42;;;;;;;17.80;15.90;;;-2.30;17.60;;;;;;4963070;28;20199;-69
2022/03/01 05:06:08;;;;;;;17.80;16.10;;;-2.40;17.70;;;;;;4974766;28;20247;-68
2022/03/01 05:08:33;;;;;;;15.60;14.50;;;-2.40;17.80;;;;;;4973463;28;20197;-69
2022/03/01 05:11:00;;;;;;;17.83;16.20;;;-2.40;17.50;;;;;;4972733;28;20190;-68
2022/03/01 05:13:26;;;;;;;16.20;14.63;;;-2.40;17.90;;;;;;4973495;28;20728;-68
2022/03/01 05:15:52;;;;;;;16.85;15.45;;;-2.40;17.40;;;;;;4974484;28;20185;-68
2022/03/01 05:18:18;;;;;;;16.27;15.05;;;-2.50;17.50;;;;;;4974326;28;20201;-68
2022/03/01 05:20:43;;;;;;;17.70;16.20;;;-2.60;17.70;;;;;;4964600;28;20597;-68
2022/03/01 05:23:09;;;;;;;16.27;15.00;;;-2.60;18.00;;;;;;4959608;28;20839;-68
2022/03/01 05:25:35;;;;;;;16.37;14.87;;;-2.60;17.90;;;;;;4970433;28;20216;-68
2022/03/01 05:28:00;;;;;;;16.80;14.70;;;-2.60;17.80;;;;;;4971788;28;20232;-69
2022/03/01 05:30:26;;;;;;;19.80;16.40;;;-2.60;17.80;;;;;;4989022;28;20726;-69
2022/03/01 05:32:53;;;;;;;16.50;15.13;;;-2.60;17.70;;;;;;4973981;28;20487;-68
2022/03/01 05:35:21;;;;;;;18.75;17.10;;;-2.70;17.90;;;;;;4972223;28;20578;-68
2022/03/01 05:37:49;;;;;;;17.17;15.68;;;-2.80;18.20;;;;;;4967741;28;20205;-68
2022/03/01 05:40:16;;;;;;;18.00;16.35;;;-2.70;18.20;;;;;;4962306;28;20261;-68
2022/03/01 05:42:43;;;;;;;19.05;17.30;;;-2.80;18.10;;;;;;4953896;28;20193;-68
2022/03/01 05:45:11;;;;;;;17.63;15.93;;;-2.90;18.30;;;;;;4952597;28;20237;-68
2022/03/01 05:47:36;;;;;;;17.48;15.93;;;-2.80;18.50;;;;;;4952709;28;20243;-72
2022/03/01 05:50:03;;;;;;;19.00;17.10;;;-2.80;18.40;;;;;;4953069;29;20213;-71
2022/03/01 05:52:29;;;;;;;15.73;14.48;;;-2.80;18.50;;;;;;4953992;28;20414;-71
2022/03/01 05:54:54;;;;;;;17.60;16.15;;;-2.90;18.80;;;;;;4954459;29;20219;-71
2022/03/01 05:57:24;;;;;;;15.73;14.53;;;-2.90;18.80;;;;;;4954708;28;20292;-71
2022/03/01 05:59:49;;;;;;;17.10;15.30;;;-2.90;18.90;;;;;;4954250;28;20174;-71
2022/03/01 06:02:15;;;;;;;16.37;14.77;;;-3.00;19.10;;;;;;4954167;29;20227;-71
2022/03/01 06:04:40;;;;;;;19.10;15.67;;;-3.00;19.10;;;;;;4955628;28;20186;-71
2022/03/01 06:07:06;;;;;;;15.40;13.97;;;-3.10;19.10;;;;;;4970545;28;20227;-71
2022/03/01 06:09:31;;;;;;;16.43;14.87;;;-3.00;19.70;;;;;;4973779;28;20543;-71
2022/03/01 06:11:57;;;;;;;18.43;16.50;;;-3.00;19.60;;;;;;4965363;28;20197;-71
2022/03/01 06:14:22;;;;;;;21.63;16.20;;;-3.00;20.30;;;;;;4954129;29;20221;-71
2022/03/01 06:16:48;;;;;;;16.87;15.10;;;-3.00;20.90;;;;;;4953035;28;20205;-71
2022/03/01 06:19:13;;;;;;;19.40;17.40;;;-3.00;20.70;;;;;;4970356;28;20543;-71
2022/03/01 06:21:39;;;;;;;16.87;15.27;;;-2.90;20.20;;;;;;4958977;28;20596;-72
2022/03/01 06:24:05;;;;;;;18.53;14.40;;;-2.90;20.40;;;;;;4953028;28;20269;-72
2022/03/01 06:26:31;;;;;;;17.08;15.48;;;-2.90;20.40;;;;;;4953131;28;20221;-73
2022/03/01 06:28:57;;;;;;;17.67;15.63;;;-2.90;20.30;;;;;;4964679;28;20244;-73
2022/03/01 06:31:22;;;;;;;17.00;15.40;;;-2.80;20.30;;;;;;4972089;28;20208;-73
2022/03/01 06:33:48;;;;;;;18.43;16.63;;;-2.70;20.20;;;;;;4967119;28;20500;-70
2022/03/01 06:36:14;;;;;;;17.13;15.57;;;-2.70;20.00;;;;;;4958362;28;20180;-70
2022/03/01 06:38:40;;;;;;;19.30;17.80;;;-2.60;19.80;;;;;;4950112;28;20184;-70
2022/03/01 06:41:05;;;;;;;20.53;17.13;;;-2.50;19.50;;;;;;4956896;28;20185;-69
2022/03/01 06:43:31;;;;;;;18.30;16.40;;;-2.50;19.90;;;;;;4952090;28;20422;-70
2022/03/01 06:45:56;;;;;;;18.30;16.40;;;-2.50;20.50;;;;;;4950468;28;20194;-70
2022/03/01 06:48:22;;;;;;;19.30;17.60;;;-2.40;20.90;;;;;;4958539;28;20213;-70
2022/03/01 06:50:48;;;;;;;16.77;15.23;;;-2.30;20.90;;;;;;4950408;28;20189;-70
2022/03/01 06:53:14;;;;;;;17.10;15.60;;;-2.10;19.90;;;;;;4963727;28;20213;-69
2022/03/01 06:55:43;;;;;;;17.00;15.50;;;-2.20;20.10;;;;;;4971338;28;20429;-69
2022/03/01 06:58:10;;;;;;;18.00;16.27;;;-2.20;19.70;;;;;;4965861;28;20828;-68
2022/03/01 07:00:36;;;;;;;19.50;17.77;;;-2.00;19.60;;;;;;4969020;28;20256;-69
2022/03/01 07:03:02;;;;;;;20.37;18.33;;;-1.80;18.90;;;;;;4968019;28;20294;-69
2022/03/01 07:05:28;;;;;;;26.47;19.63;;;-1.80;18.70;;;;;;4976419;28;20634;-68
2022/03/01 07:07:53;;;;;;;20.67;18.60;;;-2.10;19.30;;;;;;4976459;28;20492;-69
2022/03/01 07:10:19;;;;;;;17.00;15.53;;;-2.00;19.80;;;;;;4971166;28;20791;-69
2022/03/01 07:12:45;;;;;;;18.43;16.80;;;-2.00;19.80;;;;;;4972339;28;20268;-69
2022/03/01 07:15:11;;;;;;;20.42;18.50;;;-1.90;19.80;;;;;;4956319;28;20717;-68
2022/03/01 07:17:37;;;;;;;19.98;17.83;;;-1.80;19.50;;;;;;4961188;28;20284;-69
2022/03/01 07:20:04;;;;;;;19.07;17.40;;;-1.60;19.00;;;;;;4976229;28;20289;-69
2022/03/01 07:22:30;;;;;;;28.23;19.50;;;-1.50;18.30;;;;;;4973538;28;20227;-69
2022/03/01 07:24:56;;;;;;;18.75;17.13;;;-1.50;18.50;;;;;;4970623;28;20596;-69
2022/03/01 07:27:22;;;;;;;19.77;17.80;;;-1.40;18.60;;;;;;4973721;28;20209;-70
2022/03/01 07:29:47;;;;;;;20.27;18.30;;;-1.20;18.00;;;;;;4975472;28;20273;-70
2022/03/01 07:32:13;;;;;;;18.97;17.17;;;-1.10;17.80;;;;;;4964395;28;20191;-70
2022/03/01 07:34:38;;;;;;;18.23;16.67;;;-1.50;18.20;;;;;;4975212;28;20213;-70
2022/03/01 07:37:05;;;;;;;20.90;18.87;;;-1.40;18.20;;;;;;4975254;28;20239;-70
2022/03/01 07:39:31;;;;;;;20.02;18.40;;;-1.30;17.50;;;;;;4961222;28;20200;-73
2022/03/01 07:41:56;;;;;;;20.00;18.07;;;-1.10;17.10;;;;;;4958300;28;20193;-69
2022/03/01 07:44:22;;;;;;;18.67;17.20;;;-1.00;16.30;;;;;;4958647;28;20187;-71
2022/03/01 07:46:48;;;;;;;19.80;17.80;;;-0.80;15.60;;;;;;4973199;28;20208;-71
2022/03/01 07:49:14;;;;;;;21.43;18.80;;;-0.80;16.40;;;;;;4973739;28;20610;-70
2022/03/01 07:51:39;;;;;;;19.87;18.07;;;-0.50;16.60;;;;;;4963866;28;20276;-70
2022/03/01 07:54:05;;;;;;;19.60;17.97;;;-0.40;15.20;;;;;;4954011;28;20484;-69
2022/03/01 07:56:31;;;;;;;18.10;16.83;;;-0.50;14.70;;;;;;4962608;28;20229;-70
2022/03/01 07:58:57;;;;;;;20.60;18.70;;;-0.40;15.40;;;;;;4971330;28;20210;-71
2022/03/01 08:01:22;;;;;;;19.00;17.50;;;-0.30;14.40;;;;;;4971936;28;20250;-69
2022/03/01 08:03:49;;;;;;;19.73;18.03;;;0.00;14.60;;;;;;4972137;28;20186;-71
2022/03/01 08:06:16;;;;;;;18.98;17.15;;;0.20;13.90;;;;;;4957411;28;20205;-70
2022/03/01 08:08:42;;;;;;;19.77;17.90;;;0.40;13.50;;;;;;4963118;28;20716;-71
2022/03/01 08:11:08;;;;;;;21.67;20.03;;;0.60;12.70;;;;;;4961453;28;20611;-71
2022/03/01 08:13:34;;;;;;;25.15;22.02;;;0.20;13.60;;;;;;4953904;28;20662;-70
2022/03/01 08:16:00;;;;;;;21.65;19.73;;;0.30;12.90;;;;;;4956214;28;20189;-73
2022/03/01 08:18:26;;;;;;;21.03;19.20;;;0.20;14.10;;;;;;4969023;28;20204;-71
2022/03/01 08:20:52;;;;;;;20.80;19.10;;;0.20;13.10;;;;;;4970937;28;20175;-72
2022/03/01 08:23:18;;;;;;;22.23;20.53;;;0.40;13.40;;;;;;4971387;28;20195;-68
2022/03/01 08:25:43;;;;;;;20.47;18.83;;;0.40;13.90;;;;;;4971306;28;20426;-71
2022/03/01 08:28:09;;;;;;;20.50;18.67;;;0.70;13.90;;;;;;4973638;28;20214;-71
2022/03/01 08:30:37;;;;;;;19.73;18.10;;;0.80;13.10;;;;;;4975030;28;20180;-70
2022/03/01 08:33:04;;;;;;;18.42;16.63;;;0.80;13.00;;;;;;4974934;28;20180;-70
2022/03/01 08:35:32;;;;;;;19.70;18.00;;;0.80;13.30;;;;;;4964472;28;20195;-70
2022/03/01 08:38:02;;;;;;;20.10;18.42;;;0.90;11.20;;;;;;4955650;28;20208;-69
2022/03/01 08:40:29;;;;;;;20.00;17.92;;;0.80;10.60;;;;;;4970164;28;20198;-70
2022/03/01 08:42:54;;;;;;;20.20;18.17;;;0.70;10.80;;;;;;4954091;28;20185;-71
2022/03/01 08:45:20;;;;;;;18.23;16.83;;;0.80;10.80;;;;;;4953836;29;20193;-70
2022/03/01 08:47:45;;;;;;;18.50;17.07;;;0.70;11.00;;;;;;4954928;28;20201;-70
2022/03/01 08:50:11;;;;;;;19.77;18.27;;;0.90;11.10;;;;;;4955129;28;20184;-70
2022/03/01 08:52:39;;;;;;;20.27;18.17;;;0.90;10.40;;;;;;4955158;29;20188;-70
2022/03/01 08:55:06;;;;;;;20.75;17.85;;;1.00;10.90;;;;;;4955021;28;20525;-70
2022/03/01 08:57:31;;;;;;;19.48;17.98;;;1.20;10.60;;;;;;4960305;28;20278;-71
2022/03/01 08:59:57;;;;;;;17.27;15.93;;;1.30;10.40;;;;;;4972509;28;20634;-70
2022/03/01 09:02:22;;;;;;;18.33;16.87;;;1.30;10.60;;;;;;4989365;28;20223;-71
2022/03/01 09:04:48;;;;;;;19.03;17.17;;;1.40;10.50;;;;;;4974401;28;20189;-71
2022/03/01 09:07:14;;;;;;;19.27;17.70;;;1.50;10.10;;;;;;4966890;28;20590;-70
2022/03/01 09:09:39;;;;;;;18.43;17.00;;;1.70;10.10;;;;;;4954434;28;20193;-71
2022/03/01 09:12:05;;;;;;;20.80;19.00;;;1.80;9.40;;;;;;4961613;28;20187;-70
2022/03/01 09:14:30;;;;;;;19.10;17.50;;;2.00;9.30;;;;;;4967815;28;20213;-71
2022/03/01 09:16:56;;;;;;;19.23;17.93;;;2.20;8.80;;;;;;4953978;28;20949;-71
2022/03/01 09:19:22;;;;;;;16.80;15.63;;;2.40;6.40;;;;;;4954198;28;20189;-70
2022/03/01 09:21:47;;;;;;;16.60;15.60;;;2.70;5.80;;;;;;4954279;28;20192;-72
2022/03/01 09:24:13;;;;;;;18.47;17.23;;;2.90;5.40;;;;;;4964723;28;20733;-70
2022/03/01 09:26:38;;;;;;;20.03;18.10;;;3.10;5.50;;;;;;4957761;28;20210;-71
2022/03/01 09:29:04;;;;;;;18.97;17.67;;;3.30;4.00;;;;;;4956421;28;20565;-73
2022/03/01 09:31:30;;;;;;;19.07;17.70;;;3.50;3.40;;;;;;4953441;28;20241;-71
2022/03/01 09:33:55;;;;;;;18.70;17.40;;;3.60;2.70;;;;;;4956485;28;20583;-72
2022/03/01 09:36:21;;;;;;;23.83;19.50;;;3.80;3.00;;;;;;4950519;28;20204;-72
2022/03/01 09:38:46;;;;;;;19.30;17.80;;;3.90;2.10;;;;;;4951805;28;20193;-69
2022/03/01 09:41:13;;;;;;;19.97;18.10;;;4.10;2.00;;;;;;4952823;28;20182;-71
2022/03/01 09:43:40;;;;;;;17.83;16.67;;;4.30;1.30;;;;;;4963515;28;20606;-69
2022/03/01 09:46:07;;;;;;;16.45;15.60;;;4.30;1.00;;;;;;4950525;28;20189;-69
2022/03/01 09:48:33;;;;;;;18.73;17.35;;;4.50;1.20;;;;;;4960555;28;20707;-74
2022/03/01 09:51:00;;;;;;;18.23;17.00;;;4.60;1.00;;;;;;4964936;28;20189;-73
2022/03/01 09:53:26;;;;;;;17.30;16.25;;;4.60;1.00;;;;;;4957674;28;20303;-74
2022/03/01 09:55:54;;;;;;;16.38;15.25;;;4.70;1.00;;;;;;4951762;28;20206;-70
2022/03/01 09:58:20;;;;;;;17.17;15.98;;;4.80;1.00;;;;;;4971762;28;20252;-71
2022/03/01 10:00:46;;;;;;;18.63;17.33;;;4.80;1.00;;;;;;4968877;28;20691;-72
2022/03/01 10:03:16;;;;;;;18.13;16.80;;;4.90;1.00;;;;;;4969981;28;20232;-70
2022/03/01 10:05:42;;;;;;;17.40;16.40;;;5.00;1.00;;;;;;4966776;28;20491;-71
2022/03/01 10:08:17;;;;;;;18.15;16.95;;;5.00;1.00;;;;;;4968473;28;20202;-71
2022/03/01 10:10:47;;;;;;;20.02;18.35;;;5.10;1.00;;;;;;4957183;28;20202;-72
2022/03/01 10:13:14;;;;;;;19.45;18.13;;;5.20;1.00;;;;;;4953879;28;20536;-71
2022/03/01 10:15:41;;;;;;;17.08;15.90;;;5.30;1.00;;;;;;4953934;28;20695;-71
2022/03/01 10:18:15;;;;;;;17.73;16.73;;;5.40;1.00;;;;;;4968538;28;20582;-71
2022/03/01 10:20:44;;;;;;;17.13;15.60;;;5.50;1.00;;;;;;4954321;28;20850;-71
2022/03/01 10:23:10;;;;;;;19.67;18.48;;;5.60;1.00;;;;;;4959475;28;20175;-71
2022/03/01 10:25:36;;;;;;;17.45;16.35;;;5.60;1.00;;;;;;4969848;28;20254;-71
2022/03/01 10:28:03;;;;;;;18.75;17.20;;;5.60;1.00;;;;;;4967596;28;20594;-70
2022/03/01 10:30:34;;;;;;;18.13;16.88;;;5.60;1.00;;;;;;4968912;28;20555;-70
2022/03/01 10:33:07;;;;;;;17.70;16.50;;;5.60;1.00;;;;;;4972320;28;20174;-70
2022/03/01 10:35:34;;;;;;;17.50;16.50;;;5.70;1.00;;;;;;4973003;28;20179;-71
2022/03/01 10:38:01;;;;;;;16.20;15.40;;;5.70;1.00;;;;;;4972919;28;20198;-70
2022/03/01 10:40:28;;;;;;;17.95;16.77;;;5.90;1.00;;;;;;4972077;28;20729;-70
2022/03/01 10:43:04;;;;;;;16.52;15.63;;;5.90;1.00;;;;;;4972955;28;20233;-69
2022/03/01 10:45:44;;;;;;;18.17;17.17;;;6.00;1.00;;;;;;4971927;28;20291;-73
2022/03/01 10:48:12;;;;;;;17.55;16.75;;;5.80;1.00;;;;;;4954977;28;20207;-72
2022/03/01 10:50:40;;;;;;;18.75;17.77;;;5.60;1.00;;;;;;4956140;29;20661;-70
2022/03/01 10:53:06;;;;;;;17.80;16.80;;;5.70;1.00;;;;;;4957389;28;20328;-69
2022/03/01 10:55:33;;;;;;;16.25;15.45;;;5.80;1.00;;;;;;4955847;29;20661;-70
2022/03/01 10:58:12;;;;;;;17.00;16.00;;;5.80;1.00;;;;;;4956800;29;20788;-70
2022/03/01 11:00:38;;;;;;;17.52;16.45;;;5.90;1.00;;;;;;4957360;28;20418;-71
2022/03/01 11:03:08;;;;;;;17.50;16.60;;;5.90;1.00;;;;;;4957027;28;20192;-72
2022/03/01 11:05:35;;;;;;;17.27;16.13;;;6.10;1.00;;;;;;4956875;28;20455;-70
2022/03/01 11:08:08;;;;;;;16.60;15.60;;;6.30;1.00;;;;;;4956583;29;20448;-71
2022/03/01 11:10:36;;;;;;;18.00;16.83;;;6.20;1.00;;;;;;4957009;28;20424;-69
2022/03/01 11:13:02;;;;;;;17.38;16.38;;;6.30;1.00;;;;;;4956876;29;20417;-71
2022/03/01 11:15:58;;;;;;;16.53;15.43;;;6.40;1.00;;;;;;4956558;29;20256;-70
2022/03/01 11:18:57;;;;;;;17.27;16.37;;;6.50;1.00;;;;;;4956673;28;20447;-71
2022/03/01 11:21:23;;;;;;;18.73;17.67;;;6.60;1.00;;;;;;4956993;29;20503;-71
2022/03/01 11:23:53;;;;;;;17.33;16.10;;;6.70;1.00;;;;;;4960782;28;20432;-73
2022/03/01 11:26:19;;;;;;;15.90;15.10;;;6.80;1.00;;;;;;4958395;28;20444;-73
2022/03/01 11:28:56;;;;;;;16.70;15.90;;;6.70;1.00;;;;;;4955977;28;20435;-71
2022/03/01 11:31:30;;;;;;;17.10;16.10;;;6.80;1.00;;;;;;4953771;28;20261;-73
2022/03/01 11:34:12;;;;;;;16.90;16.03;;;6.80;1.00;;;;;;4956084;28;20530;-72
2022/03/01 11:36:37;;;;;;;18.77;17.40;;;6.90;1.00;;;;;;4950399;28;20448;-75
2022/03/01 11:39:12;;;;;;;19.43;17.83;;;7.10;1.00;;;;;;4955916;28;20444;-73
2022/03/01 11:41:47;;;;;;;20.40;18.67;;;7.30;1.00;;;;;;4952484;28;20667;-73
2022/03/01 11:44:21;;;;;;;18.23;17.23;;;7.40;1.00;;;;;;4951839;28;20558;-72
2022/03/01 11:46:48;;;;;;;17.50;16.40;;;7.50;1.00;;;;;;4971279;28;20449;-74
2022/03/01 11:49:16;;;;;;;18.43;17.43;;;7.70;1.00;;;;;;4949761;28;20447;-73
2022/03/01 11:51:53;;;;;;;17.30;16.50;;;7.80;1.00;;;;;;4951860;28;20994;-72
2022/03/01 11:54:22;;;;;;;21.30;19.60;;;7.90;1.00;;;;;;4954583;28;20904;-72
2022/03/01 11:56:51;;;;;;;16.90;16.10;;;8.00;1.00;;;;;;4955718;29;20496;-73
2022/03/01 11:59:17;;;;;;;17.80;16.70;;;8.00;1.00;;;;;;4954899;29;20427;-68
2022/03/01 12:01:43;;;;;;;17.97;16.87;;;8.20;1.00;;;;;;4956034;29;20497;-68
2022/03/01 12:04:09;;;;;;;17.07;16.23;;;8.30;1.00;;;;;;4956061;29;20506;-68
2022/03/01 12:06:37;;;;;;;18.70;17.80;;;8.30;1.00;;;;;;4955449;29;20831;-68
2022/03/01 12:09:10;;;;;;;17.83;16.93;;;8.40;1.00;;;;;;4955945;29;20450;-68
2022/03/01 12:11:38;;;;;;;20.93;19.30;;;8.50;1.00;;;;;;4955671;29;20443;-69
2022/03/01 12:14:10;;;;;;;20.90;19.50;;;8.50;1.00;;;;;;4956262;28;20964;-68
2022/03/01 12:16:36;;;;;;;19.80;18.60;;;8.50;1.00;;;;;;4955376;29;20429;-69
2022/03/01 12:19:17;;;;;;;18.83;17.73;;;8.40;1.00;;;;;;4955763;29;20895;-69
2022/03/01 12:21:53;;;;;;;19.27;18.20;;;8.40;1.00;;;;;;4954577;29;20943;-69
2022/03/01 12:24:21;;;;;;;18.83;17.63;;;8.20;1.00;;;;;;4954342;29;20950;-69
2022/03/01 12:26:50;;;;;;;19.83;18.53;;;7.80;1.00;;;;;;4953770;29;20449;-70
2022/03/01 12:29:19;;;;;;;18.07;16.67;;;7.80;1.00;;;;;;4955804;28;20449;-70
2022/03/01 12:32:00;;;;;;;18.53;17.37;;;8.00;1.00;;;;;;4955515;29;20456;-69
2022/03/01 12:34:28;;;;;;;19.13;17.73;;;8.00;1.00;;;;;;4973993;28;20469;-70
2022/03/01 12:36:56;;;;;;;19.77;18.33;;;8.20;1.00;;;;;;4989118;28;20445;-70